Sunday, July 22, 2018, 11:58 PM GMT
Back to Local

CWDQ, La Tuque

Location: , , Canada Lat: 47.417
Local Time: 11:58 PM GMT (23:58 GMT) Lon: -72.8
Time Zone: GMT Elev: 554 ft

Show me the last for .
Show Coded

Time T Td Feel RH Dir Speed Gust Alt SLP Vis Weather Sky Remarks
2018-07-22 23:00 65 63 - 93 340° 3 - - 30.14 0 None
2018-07-22 22:00 65 63 - 92 340° 6 - - 30.14 0 None
2018-07-22 21:00 64 62 - 94 350° 5 - - 30.16 0 None
2018-07-22 20:00 65 61 - 86 10° 2 - - 30.17 0 None
2018-07-22 19:00 66 59 - 78 - Calm - - 30.18 0 None
2018-07-22 18:00 67 55 - 66 180° 7 - - 30.18 0 Peak wind: 23 mph (20 kts) from 170° at 25 min
2018-07-22 17:00 80 46 - 30 190° 9 - - 30.12 0 None
2018-07-22 16:00 83 45 - 27 140° 7 - - 30.12 0 None
2018-07-22 15:00 81 49 - 33 120° 3 - - 30.12 0 None
2018-07-22 14:00 76 58 78 53 230° 3 - - 30.14 0 None
2018-07-22 13:00 73 59 77 62 320° 1 - - 30.13 0 None
2018-07-22 12:00 67 59 - 75 330° 1 - - 30.14 0 None
2018-07-22 11:00 60 59 - 96 340° 1 - - 30.14 0 None
2018-07-22 10:00 54 53 - 98 160° 1 - - 30.14 0 None
2018-07-22 09:00 54 54 - 98 - Calm - - 30.13 0 None
2018-07-22 08:00 55 54 - 97 - Calm - - 30.12 0 None
2018-07-22 07:00 57 56 - 96 - Calm - - 30.11 0 None
2018-07-22 06:00 58 56 - 94 210° 1 - - 30.11 0 None
2018-07-22 05:00 60 57 - 90 - Calm - - 30.11 0 None
2018-07-22 04:00 62 58 - 87 200° 1 - - 30.11 0 None
2018-07-22 03:00 66 58 - 75 210° 1 - - 30.10 0 None
2018-07-22 02:00 69 59 - 69 190° 1 - - 30.09 0 None
2018-07-22 01:00 74 57 77 55 130° 1 - - 30.08 0 None
2018-07-22 00:00 82 56 82 40 170° 3 - - 30.08 0 None

Support USWX by starting your Amazon purchase here.